Weather at Oslo Gardermoen Airport

Public forecast

Using degrees Celsius for public forecast. Weather courtesy of forecast.io.

Current aviation weather report (METAR) for Oslo Gardermoen Airport

Retrieved 2021/01/23 10:20 UTC (18 minutes ago):

ENGM 231020Z 20012KT CAVOK 02/M01 Q0985 NOSIG

Aviation forecast (TAF) for Oslo Gardermoen Airport

Retrieved 2021/01/23 06:57 UTC (4 hours ago):

TAF ENGM 230500Z 2306/2406 19010KT CAVOK BECMG 2321/2323 35003KT PROB40 2323/2406 0800 FZFG VV008